createdAt,value
2022-12-23T00:01:31.719Z,24.00
2022-12-23T00:03:58.609Z,21.60
2022-12-23T00:06:25.020Z,22.23
2022-12-23T00:08:51.408Z,21.50
2022-12-23T00:11:19.220Z,18.92
2022-12-23T00:13:46.000Z,23.48
2022-12-23T00:16:13.340Z,21.20
2022-12-23T00:18:40.379Z,22.48
2022-12-23T00:21:15.429Z,21.02
2022-12-23T00:23:46.419Z,18.88
2022-12-23T00:26:23.608Z,21.13
2022-12-23T00:28:50.170Z,21.10
2022-12-23T00:31:16.822Z,18.95
2022-12-23T00:33:43.869Z,19.30
2022-12-23T00:36:26.371Z,20.88
2022-12-23T00:38:52.880Z,21.42
2022-12-23T00:41:19.771Z,21.88
2022-12-23T00:43:46.172Z,21.08
2022-12-23T00:46:12.629Z,25.23
2022-12-23T00:48:39.126Z,21.70
2022-12-23T00:51:05.640Z,19.70
2022-12-23T00:53:32.054Z,26.48
2022-12-23T00:55:58.440Z,23.98
2022-12-23T00:58:24.861Z,24.98
2022-12-23T01:00:52.931Z,19.92
2022-12-23T01:03:19.352Z,20.98
2022-12-23T01:05:45.794Z,21.10
2022-12-23T01:08:12.227Z,26.05
2022-12-23T01:10:39.551Z,22.88
2022-12-23T01:13:06.191Z,19.77
2022-12-23T01:15:32.976Z,22.67
2022-12-23T01:18:06.466Z,22.20
2022-12-23T01:20:37.874Z,20.75
2022-12-23T01:23:04.678Z,19.40
2022-12-23T01:25:31.590Z,23.90
2022-12-23T01:27:57.980Z,24.48
2022-12-23T01:30:24.477Z,24.35
2022-12-23T01:32:51.006Z,22.67
2022-12-23T01:35:17.485Z,22.67
2022-12-23T01:37:43.882Z,22.33
2022-12-23T01:40:10.511Z,22.95
2022-12-23T01:42:36.924Z,20.52
2022-12-23T01:45:19.622Z,19.05
2022-12-23T01:47:49.780Z,23.73
2022-12-23T01:50:22.575Z,22.13
2022-12-23T01:53:01.685Z,22.75
2022-12-23T01:55:35.491Z,24.15
2022-12-23T01:58:19.345Z,23.15
2022-12-23T02:00:45.727Z,25.73
2022-12-23T02:03:12.281Z,22.33
2022-12-23T02:05:38.729Z,19.90
2022-12-23T02:08:05.244Z,23.35
2022-12-23T02:10:36.381Z,24.70
2022-12-23T02:13:31.294Z,25.33
2022-12-23T02:16:05.835Z,25.13
2022-12-23T02:18:57.740Z,24.75
2022-12-23T02:21:31.140Z,21.90
2022-12-23T02:24:06.828Z,22.38
2022-12-23T02:26:54.992Z,18.88
2022-12-23T02:29:58.996Z,20.92
2022-12-23T02:32:47.637Z,23.73
2022-12-23T02:35:20.074Z,20.75
2022-12-23T02:37:46.349Z,21.75
2022-12-23T02:40:24.843Z,24.67
2022-12-23T02:42:58.923Z,25.88
2022-12-23T02:45:29.646Z,24.45
2022-12-23T02:48:05.601Z,25.90
2022-12-23T02:50:33.598Z,27.60
2022-12-23T02:53:01.771Z,29.63
2022-12-23T02:55:29.908Z,27.70
2022-12-23T02:57:56.293Z,29.35
2022-12-23T03:00:22.831Z,26.67
2022-12-23T03:02:49.441Z,30.70
2022-12-23T03:05:26.181Z,31.50
2022-12-23T03:07:53.105Z,29.20
2022-12-23T03:10:50.549Z,26.45
2022-12-23T03:13:38.203Z,29.45
2022-12-23T03:16:26.082Z,28.17
2022-12-23T03:19:10.982Z,27.50
2022-12-23T03:21:52.120Z,27.38
2022-12-23T03:24:46.474Z,29.33
2022-12-23T03:27:25.433Z,28.80
2022-12-23T03:29:59.956Z,33.13
2022-12-23T03:32:26.375Z,29.38
2022-12-23T03:34:53.227Z,27.33
2022-12-23T03:37:19.960Z,29.90
2022-12-23T03:39:52.779Z,29.25
2022-12-23T03:42:38.941Z,26.77
2022-12-23T03:45:37.419Z,30.15
2022-12-23T03:48:01.577Z,28.40
2022-12-23T03:50:27.983Z,29.38
2022-12-23T03:53:12.426Z,30.63
2022-12-23T03:55:44.273Z,27.65
2022-12-23T03:58:35.086Z,27.30
2022-12-23T04:01:26.465Z,26.85
2022-12-23T04:04:00.919Z,25.90
2022-12-23T04:06:27.975Z,25.27
2022-12-23T04:08:54.349Z,29.65
2022-12-23T04:11:20.752Z,29.23
2022-12-23T04:13:48.001Z,27.85
2022-12-23T04:16:14.451Z,30.30
2022-12-23T04:18:40.946Z,31.15
2022-12-23T04:21:07.357Z,31.40
2022-12-23T04:23:33.771Z,29.15
2022-12-23T04:26:00.181Z,33.70
2022-12-23T04:28:26.623Z,33.63
2022-12-23T04:30:53.050Z,36.15
2022-12-23T04:33:19.471Z,33.80
2022-12-23T04:35:45.856Z,35.25
2022-12-23T04:38:12.258Z,34.60
2022-12-23T04:40:38.655Z,34.47
2022-12-23T04:43:05.086Z,34.88
2022-12-23T04:45:32.232Z,32.45
2022-12-23T04:47:58.662Z,30.45
2022-12-23T04:50:25.059Z,32.50
2022-12-23T04:52:51.473Z,31.08
2022-12-23T04:55:17.989Z,31.92
2022-12-23T04:57:44.462Z,33.92
2022-12-23T05:00:11.327Z,31.25
2022-12-23T05:02:37.868Z,27.95
2022-12-23T05:05:04.588Z,32.67
2022-12-23T05:07:31.000Z,34.13
2022-12-23T05:09:57.444Z,34.08
2022-12-23T05:12:23.859Z,32.25
2022-12-23T05:14:50.277Z,38.47
2022-12-23T05:17:16.656Z,35.00
2022-12-23T05:19:43.054Z,32.45
2022-12-23T05:22:09.437Z,34.58
2022-12-23T05:24:35.890Z,39.70
2022-12-23T05:27:02.310Z,36.05
2022-12-23T05:29:28.733Z,37.28
2022-12-23T05:31:55.216Z,38.17
2022-12-23T05:34:21.689Z,39.22
2022-12-23T05:36:48.101Z,34.40
2022-12-23T05:39:14.569Z,36.15
2022-12-23T05:41:40.969Z,36.70
2022-12-23T05:44:07.404Z,36.28
2022-12-23T05:46:33.904Z,34.38
2022-12-23T05:49:00.428Z,33.90
2022-12-23T05:51:26.822Z,37.80
2022-12-23T05:53:53.232Z,41.28
2022-12-23T05:56:19.644Z,37.00
2022-12-23T05:58:46.040Z,40.80
2022-12-23T06:01:12.431Z,36.33
2022-12-23T06:03:38.939Z,37.47
2022-12-23T06:06:05.706Z,39.88
2022-12-23T06:08:32.169Z,36.58
2022-12-23T06:10:58.567Z,37.88
2022-12-23T06:13:25.045Z,34.05
2022-12-23T06:15:51.466Z,36.60
2022-12-23T06:18:17.851Z,39.72
2022-12-23T06:20:47.642Z,38.17
2022-12-23T06:25:40.353Z,35.47
2022-12-23T06:28:06.733Z,36.78
2022-12-23T06:30:33.177Z,32.85
2022-12-23T06:32:59.568Z,30.60
2022-12-23T06:35:25.982Z,33.30
2022-12-23T06:37:55.402Z,32.90
2022-12-23T06:40:21.832Z,28.02
2022-12-23T06:42:48.233Z,30.60
2022-12-23T06:45:14.782Z,29.65
2022-12-23T06:47:41.223Z,34.80
2022-12-23T06:50:08.109Z,31.70
2022-12-23T06:52:34.530Z,26.58
2022-12-23T06:55:00.979Z,28.85
2022-12-23T06:57:27.377Z,30.92
2022-12-23T06:59:53.811Z,31.30
2022-12-23T07:02:20.451Z,27.92
2022-12-23T07:04:46.985Z,25.33
2022-12-23T07:07:13.420Z,29.05
2022-12-23T07:09:39.838Z,29.25
2022-12-23T07:12:06.473Z,28.42
2022-12-23T07:14:32.901Z,26.40
2022-12-23T07:16:59.399Z,33.40
2022-12-23T07:19:25.904Z,36.33
2022-12-23T07:21:52.349Z,31.27
2022-12-23T07:24:18.751Z,27.02
2022-12-23T07:26:45.145Z,30.95
2022-12-23T07:29:11.527Z,30.60
2022-12-23T07:31:40.926Z,29.38
2022-12-23T07:36:34.037Z,30.55
2022-12-23T07:39:00.437Z,28.35
2022-12-23T07:41:26.898Z,37.70
2022-12-23T07:43:53.342Z,32.60
2022-12-23T07:46:19.862Z,25.25
2022-12-23T07:48:46.334Z,30.85
2022-12-23T07:51:12.825Z,30.85
2022-12-23T07:53:39.274Z,28.05
2022-12-23T07:56:06.009Z,28.23
2022-12-23T07:58:32.452Z,27.50
2022-12-23T08:01:01.945Z,32.58
2022-12-23T08:03:28.553Z,33.42
2022-12-23T08:06:06.594Z,33.20
2022-12-23T08:08:33.196Z,32.05
2022-12-23T08:11:00.387Z,31.35
2022-12-23T08:13:26.820Z,27.63
2022-12-23T08:16:00.431Z,28.48
2022-12-23T08:18:27.116Z,43.95
2022-12-23T08:21:00.703Z,29.25
2022-12-23T08:23:27.609Z,34.15
2022-12-23T08:26:11.056Z,38.03
2022-12-23T08:28:38.410Z,28.40
2022-12-23T08:31:12.766Z,32.42
2022-12-23T08:33:39.843Z,24.15
2022-12-23T08:36:07.193Z,32.05
2022-12-23T08:38:33.747Z,31.38
2022-12-23T08:41:00.156Z,26.67
2022-12-23T08:43:31.827Z,31.63
2022-12-23T08:46:01.845Z,31.65
2022-12-23T08:48:28.335Z,44.55
2022-12-23T08:50:54.735Z,33.88
2022-12-23T08:53:21.205Z,35.70
2022-12-23T08:55:47.643Z,30.13
2022-12-23T08:58:14.688Z,28.10
2022-12-23T09:00:41.178Z,30.35
2022-12-23T09:03:08.015Z,35.50
2022-12-23T09:05:35.673Z,28.25
2022-12-23T09:08:02.087Z,38.30
2022-12-23T09:10:28.516Z,33.45
2022-12-23T09:12:57.816Z,30.38
2022-12-23T09:15:24.621Z,29.65
2022-12-23T09:17:51.008Z,29.75
2022-12-23T09:20:17.420Z,28.52
2022-12-23T09:22:43.819Z,37.85
2022-12-23T09:25:10.216Z,34.05
2022-12-23T09:27:36.651Z,33.72
2022-12-23T09:30:03.203Z,34.40
2022-12-23T09:32:29.641Z,33.15
2022-12-23T09:34:56.044Z,24.60
2022-12-23T09:37:22.451Z,34.35
2022-12-23T09:39:48.900Z,30.77
2022-12-23T09:42:33.478Z,31.48
2022-12-23T09:45:18.064Z,35.28
2022-12-23T09:47:44.497Z,27.02
2022-12-23T09:50:18.026Z,25.13
2022-12-23T09:53:07.021Z,28.55
2022-12-23T09:55:42.503Z,33.05
2022-12-23T09:58:29.843Z,28.85
2022-12-23T10:01:17.349Z,28.52
2022-12-23T10:04:12.252Z,28.65
2022-12-23T10:06:38.715Z,23.83
2022-12-23T10:09:05.290Z,25.27
2022-12-23T10:11:34.000Z,26.42
2022-12-23T10:14:02.261Z,30.38
2022-12-23T10:16:55.645Z,27.80
2022-12-23T10:19:42.158Z,27.63
2022-12-23T10:22:23.838Z,31.17
2022-12-23T10:27:26.259Z,29.33
2022-12-23T10:29:52.691Z,27.45
2022-12-23T10:33:07.075Z,26.00
2022-12-23T10:35:41.679Z,25.75
2022-12-23T10:38:29.188Z,27.05
2022-12-23T10:41:26.487Z,32.28
2022-12-23T10:44:24.920Z,34.58
2022-12-23T10:47:13.301Z,23.75
2022-12-23T10:49:55.878Z,28.80
2022-12-23T10:52:27.442Z,23.65
2022-12-23T10:54:53.827Z,25.23
2022-12-23T10:57:20.314Z,27.45
2022-12-23T10:59:46.712Z,25.80
2022-12-23T11:02:13.369Z,25.35
2022-12-23T11:04:40.696Z,24.50
2022-12-23T11:07:42.734Z,28.08
2022-12-23T11:10:01.482Z,24.75
2022-12-23T11:12:42.493Z,26.48
2022-12-23T11:15:30.662Z,29.45
2022-12-23T11:18:07.150Z,26.35
2022-12-23T11:20:35.727Z,26.83
2022-12-23T11:23:02.993Z,24.15
2022-12-23T11:25:38.823Z,30.42
2022-12-23T11:28:10.982Z,25.55
2022-12-23T11:30:38.012Z,27.02
2022-12-23T11:33:04.771Z,25.13
2022-12-23T11:35:32.565Z,26.80
2022-12-23T11:38:00.422Z,24.77
2022-12-23T11:40:28.703Z,24.25
2022-12-23T11:43:00.131Z,24.23
2022-12-23T11:45:28.546Z,24.40
2022-12-23T11:47:54.959Z,24.67
2022-12-23T11:50:24.429Z,25.95
2022-12-23T11:52:52.087Z,23.55
2022-12-23T11:55:26.131Z,22.52
2022-12-23T11:57:52.879Z,21.48
2022-12-23T12:00:25.121Z,21.48
2022-12-23T12:02:53.108Z,22.98
2022-12-23T12:05:31.091Z,20.20
2022-12-23T12:08:21.395Z,22.02
2022-12-23T12:10:55.765Z,21.60
2022-12-23T12:13:26.954Z,23.13
2022-12-23T12:16:22.825Z,23.92
2022-12-23T12:18:55.396Z,26.77
2022-12-23T12:21:28.437Z,22.67
2022-12-23T12:24:17.300Z,26.20
2022-12-23T12:26:44.621Z,22.95
2022-12-23T12:29:18.445Z,22.38
2022-12-23T12:31:47.555Z,26.45
2022-12-23T12:34:29.059Z,29.52
2022-12-23T12:37:14.229Z,23.52
2022-12-23T12:39:51.984Z,26.33
2022-12-23T12:42:43.149Z,26.77
2022-12-23T12:45:38.096Z,26.40
2022-12-23T12:48:36.806Z,22.52
2022-12-23T12:51:12.485Z,23.33
2022-12-23T12:53:42.764Z,21.70
2022-12-23T12:56:15.867Z,19.90
2022-12-23T12:58:43.044Z,22.25
2022-12-23T13:01:37.504Z,22.60
2022-12-23T13:04:06.993Z,20.80
2022-12-23T13:06:52.121Z,24.58
2022-12-23T13:09:21.525Z,25.70
2022-12-23T13:12:06.791Z,21.17
2022-12-23T13:14:58.239Z,17.45
2022-12-23T13:17:26.554Z,17.85
2022-12-23T13:20:32.956Z,21.38
2022-12-23T13:23:27.098Z,19.80
2022-12-23T13:25:54.593Z,19.05
2022-12-23T13:28:53.206Z,17.48
2022-12-23T13:31:36.222Z,16.10
2022-12-23T13:34:12.292Z,16.83
2022-12-23T13:36:52.217Z,18.60
2022-12-23T13:39:21.549Z,16.40
2022-12-23T13:41:49.827Z,17.27
2022-12-23T13:44:16.249Z,16.40
2022-12-23T13:46:45.604Z,16.08
2022-12-23T13:49:30.551Z,16.63
2022-12-23T13:52:13.072Z,18.08
2022-12-23T13:54:56.790Z,17.70
2022-12-23T13:57:41.189Z,17.52
2022-12-23T14:00:16.872Z,16.70
2022-12-23T14:02:48.457Z,18.45
2022-12-23T14:05:34.333Z,16.48
2022-12-23T14:08:15.199Z,19.33
2022-12-23T14:10:41.616Z,18.65
2022-12-23T14:13:08.163Z,19.80
2022-12-23T14:15:47.613Z,18.30
2022-12-23T14:18:23.366Z,19.08
2022-12-23T14:21:11.961Z,16.23
2022-12-23T14:24:04.655Z,15.05
2022-12-23T14:26:39.634Z,17.38
2022-12-23T14:29:30.379Z,14.30
2022-12-23T14:31:57.241Z,18.67
2022-12-23T14:34:33.238Z,16.83
2022-12-23T14:37:21.496Z,17.25
2022-12-23T14:39:48.645Z,16.92
2022-12-23T14:42:16.922Z,18.25
2022-12-23T14:44:47.309Z,14.95
2022-12-23T14:47:34.867Z,12.90
2022-12-23T14:50:32.249Z,18.55
2022-12-23T14:52:59.832Z,17.23
2022-12-23T14:55:30.951Z,20.67
2022-12-23T14:58:20.869Z,14.40
2022-12-23T15:00:49.653Z,15.63
2022-12-23T15:03:17.114Z,17.05
2022-12-23T15:05:43.604Z,15.90
2022-12-23T15:08:29.835Z,17.92
2022-12-23T15:10:56.710Z,15.38
2022-12-23T15:13:23.202Z,16.85
2022-12-23T15:16:00.632Z,15.75
2022-12-23T15:18:28.004Z,19.13
2022-12-23T15:20:58.995Z,15.48
2022-12-23T15:23:25.405Z,14.93
2022-12-23T15:25:51.835Z,18.75
2022-12-23T15:28:22.085Z,14.90
2022-12-23T15:30:51.206Z,13.40
2022-12-23T15:34:00.525Z,14.88
2022-12-23T15:36:09.404Z,17.40
2022-12-23T15:38:36.317Z,17.70
2022-12-23T15:41:05.170Z,18.70
2022-12-23T15:43:31.709Z,20.65
2022-12-23T15:46:08.898Z,16.80
2022-12-23T15:48:35.454Z,18.70
2022-12-23T15:51:13.599Z,20.13
2022-12-23T15:53:41.007Z,19.63
2022-12-23T15:56:22.507Z,21.80
2022-12-23T15:58:48.919Z,21.52
2022-12-23T16:01:16.407Z,23.08
2022-12-23T16:03:50.454Z,24.17
2022-12-23T16:06:16.883Z,22.17
2022-12-23T16:08:43.580Z,22.48
2022-12-23T16:11:20.071Z,19.85
2022-12-23T16:13:58.789Z,21.65
2022-12-23T16:16:37.905Z,21.83
2022-12-23T16:19:04.864Z,19.90
2022-12-23T16:21:33.600Z,20.45
2022-12-23T16:24:00.087Z,22.85
2022-12-23T16:26:26.517Z,22.25
2022-12-23T16:28:54.995Z,19.98
2022-12-23T16:31:21.572Z,19.48
2022-12-23T16:33:53.751Z,22.10
2022-12-23T16:36:22.659Z,18.27
2022-12-23T16:38:50.066Z,21.30
2022-12-23T16:41:16.868Z,21.50
2022-12-23T16:43:51.562Z,20.63
2022-12-23T16:48:53.056Z,22.73
2022-12-23T16:51:22.051Z,24.02
2022-12-23T16:53:49.193Z,24.77
2022-12-23T16:56:16.598Z,25.13
2022-12-23T16:58:43.180Z,24.20
2022-12-23T17:01:22.671Z,23.42
2022-12-23T17:03:51.305Z,25.17
2022-12-23T17:06:17.848Z,20.92
2022-12-23T17:08:44.233Z,23.15
2022-12-23T17:11:35.124Z,23.55
2022-12-23T17:14:05.686Z,21.88
2022-12-23T17:16:33.404Z,23.50
2022-12-23T17:18:59.921Z,26.42
2022-12-23T17:21:28.894Z,23.17
2022-12-23T17:24:05.276Z,24.50
2022-12-23T17:26:31.704Z,24.17
2022-12-23T17:28:58.101Z,25.75
2022-12-23T17:31:27.030Z,25.75
2022-12-23T17:33:53.798Z,28.33
2022-12-23T17:36:20.207Z,32.17
2022-12-23T17:38:46.648Z,33.47
2022-12-23T17:41:24.538Z,31.40
2022-12-23T17:43:50.950Z,35.38
2022-12-23T17:46:17.386Z,32.95
2022-12-23T17:48:43.847Z,41.63
2022-12-23T17:51:18.428Z,40.47
2022-12-23T17:53:45.415Z,55.88
2022-12-23T17:56:16.900Z,40.47
2022-12-23T17:58:43.417Z,31.80
2022-12-23T18:01:24.237Z,32.97
2022-12-23T18:03:50.870Z,30.33
2022-12-23T18:06:18.746Z,35.22
2022-12-23T18:08:45.256Z,29.88
2022-12-23T18:11:31.068Z,31.73
2022-12-23T18:13:57.456Z,31.58
2022-12-23T18:16:23.900Z,37.28
2022-12-23T18:18:50.316Z,33.22
2022-12-23T18:21:28.821Z,42.92
2022-12-23T18:23:59.853Z,28.85
2022-12-23T18:26:45.720Z,56.35
2022-12-23T18:29:12.204Z,36.33
2022-12-23T18:31:42.782Z,30.58
2022-12-23T18:34:16.234Z,36.38
2022-12-23T18:36:42.708Z,39.33
2022-12-23T18:39:09.145Z,36.78
2022-12-23T18:41:35.547Z,32.55
2022-12-23T18:44:01.967Z,54.53
2022-12-23T18:46:28.416Z,32.47
2022-12-23T18:48:54.870Z,35.60
2022-12-23T18:51:22.625Z,31.45
2022-12-23T18:53:49.067Z,38.28
2022-12-23T18:56:16.159Z,33.50
2022-12-23T18:58:42.659Z,31.92
2022-12-23T19:01:15.308Z,39.22
2022-12-23T19:03:42.171Z,30.23
2022-12-23T19:06:09.286Z,36.03
2022-12-23T19:08:36.000Z,40.97
2022-12-23T19:11:02.463Z,33.92
2022-12-23T19:13:28.991Z,27.30
2022-12-23T19:15:55.499Z,28.40
2022-12-23T19:18:21.982Z,34.75
2022-12-23T19:20:48.796Z,37.53
2022-12-23T19:23:17.410Z,35.47
2022-12-23T19:25:49.212Z,35.55
2022-12-23T19:28:21.197Z,37.45
2022-12-23T19:30:47.658Z,34.72
2022-12-23T19:33:14.151Z,33.22
2022-12-23T19:35:41.729Z,32.60
2022-12-23T19:38:08.157Z,29.10
2022-12-23T19:40:34.543Z,30.65
2022-12-23T19:43:00.983Z,34.72
2022-12-23T19:45:27.393Z,37.67
2022-12-23T19:47:53.783Z,33.85
2022-12-23T19:50:20.180Z,32.70
2022-12-23T19:52:46.577Z,33.45
2022-12-23T19:55:13.076Z,31.95
2022-12-23T19:57:39.484Z,33.15
2022-12-23T20:00:08.627Z,39.28
2022-12-23T20:02:35.104Z,29.30
2022-12-23T20:05:01.618Z,32.22
2022-12-23T20:07:28.006Z,30.52
2022-12-23T20:09:54.437Z,32.53
2022-12-23T20:12:20.845Z,29.50
2022-12-23T20:14:47.355Z,29.80
2022-12-23T20:17:13.763Z,34.08
2022-12-23T20:19:45.832Z,28.88
2022-12-23T20:22:12.886Z,31.20
2022-12-23T20:24:39.307Z,30.60
2022-12-23T20:27:10.938Z,25.80
2022-12-23T20:29:38.435Z,30.00
2022-12-23T20:32:05.229Z,33.15
2022-12-23T20:34:38.336Z,29.10
2022-12-23T20:37:08.321Z,36.95
2022-12-23T20:39:34.997Z,39.90
2022-12-23T20:42:01.503Z,33.50
2022-12-23T20:44:36.816Z,29.70
2022-12-23T20:47:05.163Z,27.55
2022-12-23T20:49:31.660Z,30.95
2022-12-23T20:51:58.080Z,27.95
2022-12-23T20:54:31.721Z,32.72
2022-12-23T20:56:59.534Z,29.25
2022-12-23T20:59:29.481Z,23.77
2022-12-23T21:01:56.302Z,23.92
2022-12-23T21:04:22.909Z,20.92
2022-12-23T21:06:50.547Z,21.13
2022-12-23T21:09:19.320Z,23.35
2022-12-23T21:11:46.501Z,22.50
2022-12-23T21:14:13.585Z,25.95
2022-12-23T21:16:40.365Z,23.35
2022-12-23T21:19:08.371Z,26.55
2022-12-23T21:21:38.003Z,26.10
2022-12-23T21:24:05.122Z,24.55
2022-12-23T21:26:34.340Z,24.63
2022-12-23T21:29:01.251Z,24.08
2022-12-23T21:31:30.970Z,25.25
2022-12-23T21:33:57.555Z,23.38
2022-12-23T21:36:25.684Z,24.48
2022-12-23T21:38:52.183Z,28.58
2022-12-23T21:41:20.561Z,32.30
2022-12-23T21:43:47.384Z,27.60
2022-12-23T21:46:15.309Z,23.25
2022-12-23T21:48:41.907Z,28.00
2022-12-23T21:51:10.556Z,23.08
2022-12-23T21:53:37.131Z,26.45
2022-12-23T21:56:04.469Z,24.48
2022-12-23T21:58:31.089Z,22.75
2022-12-23T22:00:57.754Z,21.73
2022-12-23T22:03:24.270Z,26.88
2022-12-23T22:05:52.119Z,25.10
2022-12-23T22:08:18.653Z,22.40
2022-12-23T22:10:45.096Z,20.95
2022-12-23T22:13:14.102Z,24.63
2022-12-23T22:15:43.197Z,23.23
2022-12-23T22:18:09.635Z,21.75
2022-12-23T22:20:42.591Z,21.58
2022-12-23T22:23:12.949Z,22.50
2022-12-23T22:25:39.459Z,23.58
2022-12-23T22:28:06.016Z,24.27
2022-12-23T22:30:32.413Z,22.27
2022-12-23T22:32:58.811Z,19.10
2022-12-23T22:35:25.204Z,21.63
2022-12-23T22:37:51.668Z,18.75
2022-12-23T22:40:18.152Z,22.48
2022-12-23T22:42:44.543Z,18.13
2022-12-23T22:45:11.143Z,19.15
2022-12-23T22:47:37.808Z,20.95
2022-12-23T22:50:06.915Z,16.70
2022-12-23T22:52:33.399Z,22.55
2022-12-23T22:55:00.851Z,22.27
2022-12-23T22:57:27.246Z,19.10
2022-12-23T22:59:58.098Z,19.80
2022-12-23T23:02:25.132Z,25.33
2022-12-23T23:04:51.688Z,20.70
2022-12-23T23:07:18.121Z,22.67
2022-12-23T23:09:44.588Z,19.20
2022-12-23T23:12:10.958Z,22.60
2022-12-23T23:14:37.359Z,19.27
2022-12-23T23:17:03.812Z,26.05
2022-12-23T23:19:30.275Z,23.85
2022-12-23T23:21:56.683Z,22.23
2022-12-23T23:24:27.738Z,21.80
2022-12-23T23:26:57.397Z,23.65
2022-12-23T23:29:23.807Z,21.58
2022-12-23T23:31:50.292Z,24.30
2022-12-23T23:34:16.774Z,21.55
2022-12-23T23:36:43.248Z,21.75
2022-12-23T23:39:11.676Z,21.90
2022-12-23T23:41:38.067Z,20.65
2022-12-23T23:44:04.630Z,20.00
2022-12-23T23:46:31.091Z,17.75
2022-12-23T23:48:57.597Z,20.98
2022-12-23T23:51:23.992Z,21.98
2022-12-23T23:53:50.380Z,21.85
2022-12-23T23:56:22.085Z,19.27
2022-12-23T23:58:51.351Z,20.52
